sensor_id;sensor_type;location;lat;lon;timestamp;P1;durP1;ratioP1;P2;durP2;ratioP2
39778;SDS011;25454;49.878;8.618;2023-04-24T00:03:20;2.73;;;1.33;;
39778;SDS011;25454;49.878;8.618;2023-04-24T00:08:20;3.37;;;1.13;;
39778;SDS011;25454;49.878;8.618;2023-04-24T00:13:22;1.17;;;0.87;;
39778;SDS011;25454;49.878;8.618;2023-04-24T00:18:23;1.43;;;0.90;;
39778;SDS011;25454;49.878;8.618;2023-04-24T00:23:23;3.20;;;0.90;;
39778;SDS011;25454;49.878;8.618;2023-04-24T00:28:24;1.30;;;1.07;;
39778;SDS011;25454;49.878;8.618;2023-04-24T00:33:24;1.47;;;1.00;;
39778;SDS011;25454;49.878;8.618;2023-04-24T00:38:25;2.43;;;1.37;;
39778;SDS011;25454;49.878;8.618;2023-04-24T00:43:26;2.07;;;1.10;;
39778;SDS011;25454;49.878;8.618;2023-04-24T00:48:26;1.63;;;1.10;;
39778;SDS011;25454;49.878;8.618;2023-04-24T00:53:27;5.03;;;1.33;;
39778;SDS011;25454;49.878;8.618;2023-04-24T00:58:28;2.70;;;1.20;;
39778;SDS011;25454;49.878;8.618;2023-04-24T01:03:30;6.50;;;1.80;;
39778;SDS011;25454;49.878;8.618;2023-04-24T01:08:31;2.37;;;1.30;;
39778;SDS011;25454;49.878;8.618;2023-04-24T01:13:34;3.47;;;1.17;;
39778;SDS011;25454;49.878;8.618;2023-04-24T01:18:35;2.43;;;1.20;;
39778;SDS011;25454;49.878;8.618;2023-04-24T01:23:35;1.23;;;1.10;;
39778;SDS011;25454;49.878;8.618;2023-04-24T01:28:36;1.50;;;1.17;;
39778;SDS011;25454;49.878;8.618;2023-04-24T01:33:37;2.33;;;1.20;;
39778;SDS011;25454;49.878;8.618;2023-04-24T01:38:38;3.33;;;1.30;;
39778;SDS011;25454;49.878;8.618;2023-04-24T01:43:38;4.43;;;1.73;;
39778;SDS011;25454;49.878;8.618;2023-04-24T01:48:40;1.93;;;1.40;;
39778;SDS011;25454;49.878;8.618;2023-04-24T01:53:41;2.43;;;1.20;;
39778;SDS011;25454;49.878;8.618;2023-04-24T01:58:42;3.23;;;1.27;;
39778;SDS011;25454;49.878;8.618;2023-04-24T02:03:43;3.43;;;1.43;;
39778;SDS011;25454;49.878;8.618;2023-04-24T02:08:44;4.40;;;1.40;;
39778;SDS011;25454;49.878;8.618;2023-04-24T02:13:45;4.43;;;1.30;;
39778;SDS011;25454;49.878;8.618;2023-04-24T02:18:45;4.50;;;1.30;;
39778;SDS011;25454;49.878;8.618;2023-04-24T02:23:46;3.80;;;1.13;;
39778;SDS011;25454;49.878;8.618;2023-04-24T02:28:46;2.67;;;1.30;;
39778;SDS011;25454;49.878;8.618;2023-04-24T02:33:47;3.13;;;1.73;;
39778;SDS011;25454;49.878;8.618;2023-04-24T02:38:47;2.30;;;1.50;;
39778;SDS011;25454;49.878;8.618;2023-04-24T02:43:48;2.73;;;1.30;;
39778;SDS011;25454;49.878;8.618;2023-04-24T02:48:49;5.00;;;1.27;;
39778;SDS011;25454;49.878;8.618;2023-04-24T02:53:49;4.23;;;1.30;;
39778;SDS011;25454;49.878;8.618;2023-04-24T02:58:50;2.33;;;1.40;;
39778;SDS011;25454;49.878;8.618;2023-04-24T03:03:50;2.97;;;1.40;;
39778;SDS011;25454;49.878;8.618;2023-04-24T03:08:51;2.10;;;1.30;;
39778;SDS011;25454;49.878;8.618;2023-04-24T03:13:52;3.37;;;1.30;;
39778;SDS011;25454;49.878;8.618;2023-04-24T03:18:52;4.43;;;1.23;;
39778;SDS011;25454;49.878;8.618;2023-04-24T03:23:56;3.53;;;1.40;;
39778;SDS011;25454;49.878;8.618;2023-04-24T03:28:57;5.87;;;1.50;;
39778;SDS011;25454;49.878;8.618;2023-04-24T03:33:58;1.87;;;1.37;;
39778;SDS011;25454;49.878;8.618;2023-04-24T03:38:58;1.63;;;1.23;;
39778;SDS011;25454;49.878;8.618;2023-04-24T03:43:59;6.87;;;1.27;;
39778;SDS011;25454;49.878;8.618;2023-04-24T03:49:00;2.70;;;1.30;;
39778;SDS011;25454;49.878;8.618;2023-04-24T03:54:00;1.33;;;1.13;;
39778;SDS011;25454;49.878;8.618;2023-04-24T03:59:01;6.67;;;1.43;;
39778;SDS011;25454;49.878;8.618;2023-04-24T04:04:02;4.17;;;1.30;;
39778;SDS011;25454;49.878;8.618;2023-04-24T04:09:03;3.43;;;1.43;;
39778;SDS011;25454;49.878;8.618;2023-04-24T04:14:04;2.07;;;1.77;;
39778;SDS011;25454;49.878;8.618;2023-04-24T04:19:05;3.83;;;1.60;;
39778;SDS011;25454;49.878;8.618;2023-04-24T04:24:06;4.10;;;1.87;;
39778;SDS011;25454;49.878;8.618;2023-04-24T04:29:07;2.30;;;1.93;;
39778;SDS011;25454;49.878;8.618;2023-04-24T04:34:07;2.57;;;2.17;;
39778;SDS011;25454;49.878;8.618;2023-04-24T04:39:09;4.07;;;2.03;;
39778;SDS011;25454;49.878;8.618;2023-04-24T04:44:09;4.27;;;2.17;;
39778;SDS011;25454;49.878;8.618;2023-04-24T04:49:10;4.80;;;2.30;;
39778;SDS011;25454;49.878;8.618;2023-04-24T04:54:10;2.97;;;2.70;;
39778;SDS011;25454;49.878;8.618;2023-04-24T04:59:11;2.33;;;2.03;;
39778;SDS011;25454;49.878;8.618;2023-04-24T05:04:12;4.23;;;2.47;;
39778;SDS011;25454;49.878;8.618;2023-04-24T05:09:12;3.30;;;2.03;;
39778;SDS011;25454;49.878;8.618;2023-04-24T05:14:13;2.87;;;2.10;;
39778;SDS011;25454;49.878;8.618;2023-04-24T05:19:14;3.17;;;2.87;;
39778;SDS011;25454;49.878;8.618;2023-04-24T05:24:14;3.40;;;2.33;;
39778;SDS011;25454;49.878;8.618;2023-04-24T05:29:15;3.17;;;1.90;;
39778;SDS011;25454;49.878;8.618;2023-04-24T05:34:15;3.17;;;1.90;;
39778;SDS011;25454;49.878;8.618;2023-04-24T05:39:16;2.77;;;2.13;;
39778;SDS011;25454;49.878;8.618;2023-04-24T05:44:17;2.23;;;2.03;;
39778;SDS011;25454;49.878;8.618;2023-04-24T05:49:19;2.90;;;2.20;;
39778;SDS011;25454;49.878;8.618;2023-04-24T05:54:28;3.67;;;2.30;;
39778;SDS011;25454;49.878;8.618;2023-04-24T05:59:29;3.53;;;2.37;;
39778;SDS011;25454;49.878;8.618;2023-04-24T06:04:29;2.10;;;2.00;;
39778;SDS011;25454;49.878;8.618;2023-04-24T06:09:31;2.47;;;2.27;;
39778;SDS011;25454;49.878;8.618;2023-04-24T06:14:31;5.77;;;2.40;;
39778;SDS011;25454;49.878;8.618;2023-04-24T06:19:32;2.50;;;1.80;;
39778;SDS011;25454;49.878;8.618;2023-04-24T06:24:35;3.57;;;2.33;;
39778;SDS011;25454;49.878;8.618;2023-04-24T06:29:36;3.93;;;2.50;;
39778;SDS011;25454;49.878;8.618;2023-04-24T06:34:37;3.70;;;2.20;;
39778;SDS011;25454;49.878;8.618;2023-04-24T06:39:38;3.97;;;1.80;;
39778;SDS011;25454;49.878;8.618;2023-04-24T06:44:38;3.30;;;2.00;;
39778;SDS011;25454;49.878;8.618;2023-04-24T06:49:42;4.10;;;2.43;;
39778;SDS011;25454;49.878;8.618;2023-04-24T06:54:46;4.13;;;2.70;;
39778;SDS011;25454;49.878;8.618;2023-04-24T06:59:46;3.93;;;3.30;;
39778;SDS011;25454;49.878;8.618;2023-04-24T07:04:47;5.13;;;3.47;;
39778;SDS011;25454;49.878;8.618;2023-04-24T07:09:48;4.50;;;2.97;;
39778;SDS011;25454;49.878;8.618;2023-04-24T07:14:50;4.47;;;3.57;;
39778;SDS011;25454;49.878;8.618;2023-04-24T07:19:51;4.00;;;2.90;;
39778;SDS011;25454;49.878;8.618;2023-04-24T07:24:51;5.47;;;3.43;;
39778;SDS011;25454;49.878;8.618;2023-04-24T07:29:52;3.97;;;3.67;;
39778;SDS011;25454;49.878;8.618;2023-04-24T07:34:52;3.80;;;3.50;;
39778;SDS011;25454;49.878;8.618;2023-04-24T07:39:53;3.77;;;3.03;;
39778;SDS011;25454;49.878;8.618;2023-04-24T07:44:54;6.23;;;3.40;;
39778;SDS011;25454;49.878;8.618;2023-04-24T07:49:54;5.00;;;3.33;;
39778;SDS011;25454;49.878;8.618;2023-04-24T07:54:55;4.03;;;2.87;;
39778;SDS011;25454;49.878;8.618;2023-04-24T08:00:00;4.83;;;2.27;;
39778;SDS011;25454;49.878;8.618;2023-04-24T08:05:01;1.93;;;1.73;;
39778;SDS011;25454;49.878;8.618;2023-04-24T08:10:03;1.83;;;1.20;;
39778;SDS011;25454;49.878;8.618;2023-04-24T08:15:05;2.57;;;1.43;;
39778;SDS011;25454;49.878;8.618;2023-04-24T08:20:06;1.70;;;1.40;;
39778;SDS011;25454;49.878;8.618;2023-04-24T08:25:13;1.67;;;1.57;;
39778;SDS011;25454;49.878;8.618;2023-04-24T08:30:13;2.70;;;1.60;;
39778;SDS011;25454;49.878;8.618;2023-04-24T08:35:14;2.40;;;2.00;;
39778;SDS011;25454;49.878;8.618;2023-04-24T08:40:15;2.03;;;1.80;;
39778;SDS011;25454;49.878;8.618;2023-04-24T08:45:16;3.10;;;1.80;;
39778;SDS011;25454;49.878;8.618;2023-04-24T08:50:17;3.23;;;1.93;;
39778;SDS011;25454;49.878;8.618;2023-04-24T08:55:18;3.80;;;1.90;;
39778;SDS011;25454;49.878;8.618;2023-04-24T09:00:20;3.40;;;2.30;;
39778;SDS011;25454;49.878;8.618;2023-04-24T09:05:21;2.63;;;2.23;;
39778;SDS011;25454;49.878;8.618;2023-04-24T09:10:24;2.77;;;2.57;;
39778;SDS011;25454;49.878;8.618;2023-04-24T09:15:26;4.27;;;2.30;;
39778;SDS011;25454;49.878;8.618;2023-04-24T09:20:27;2.10;;;1.90;;
39778;SDS011;25454;49.878;8.618;2023-04-24T09:25:34;1.90;;;1.80;;
39778;SDS011;25454;49.878;8.618;2023-04-24T09:30:38;2.57;;;1.80;;
39778;SDS011;25454;49.878;8.618;2023-04-24T09:35:41;4.07;;;2.73;;
39778;SDS011;25454;49.878;8.618;2023-04-24T09:40:51;2.43;;;1.80;;
39778;SDS011;25454;49.878;8.618;2023-04-24T09:45:55;2.00;;;1.70;;
39778;SDS011;25454;49.878;8.618;2023-04-24T09:50:56;2.40;;;2.00;;
39778;SDS011;25454;49.878;8.618;2023-04-24T09:56:06;2.73;;;2.10;;
39778;SDS011;25454;49.878;8.618;2023-04-24T10:01:09;2.07;;;1.63;;
39778;SDS011;25454;49.878;8.618;2023-04-24T10:06:11;2.57;;;1.20;;
39778;SDS011;25454;49.878;8.618;2023-04-24T10:11:12;1.43;;;1.33;;
39778;SDS011;25454;49.878;8.618;2023-04-24T10:16:13;5.47;;;2.00;;
39778;SDS011;25454;49.878;8.618;2023-04-24T10:21:16;3.73;;;1.40;;
39778;SDS011;25454;49.878;8.618;2023-04-24T10:26:17;4.17;;;2.13;;
39778;SDS011;25454;49.878;8.618;2023-04-24T10:31:19;2.30;;;1.60;;
39778;SDS011;25454;49.878;8.618;2023-04-24T10:36:21;3.33;;;1.73;;
39778;SDS011;25454;49.878;8.618;2023-04-24T10:41:23;1.60;;;1.50;;
39778;SDS011;25454;49.878;8.618;2023-04-24T10:46:26;3.27;;;1.40;;
39778;SDS011;25454;49.878;8.618;2023-04-24T10:56:51;3.47;;;1.57;;
39778;SDS011;25454;49.878;8.618;2023-04-24T11:01:53;3.27;;;1.47;;
39778;SDS011;25454;49.878;8.618;2023-04-24T11:06:55;2.00;;;1.70;;
39778;SDS011;25454;49.878;8.618;2023-04-24T11:12:05;2.07;;;1.80;;
39778;SDS011;25454;49.878;8.618;2023-04-24T11:17:26;1.63;;;1.40;;
39778;SDS011;25454;49.878;8.618;2023-04-24T11:22:29;5.27;;;2.07;;
39778;SDS011;25454;49.878;8.618;2023-04-24T11:27:43;2.60;;;2.40;;
39778;SDS011;25454;49.878;8.618;2023-04-24T11:32:52;2.87;;;2.60;;
39778;SDS011;25454;49.878;8.618;2023-04-24T11:37:53;3.33;;;2.70;;
39778;SDS011;25454;49.878;8.618;2023-04-24T11:42:54;3.57;;;2.53;;
39778;SDS011;25454;49.878;8.618;2023-04-24T11:47:55;4.07;;;2.87;;
39778;SDS011;25454;49.878;8.618;2023-04-24T11:52:56;4.17;;;2.70;;
39778;SDS011;25454;49.878;8.618;2023-04-24T11:57:58;3.23;;;2.27;;
39778;SDS011;25454;49.878;8.618;2023-04-24T12:03:11;2.40;;;2.17;;
39778;SDS011;25454;49.878;8.618;2023-04-24T12:08:12;2.30;;;2.10;;
39778;SDS011;25454;49.878;8.618;2023-04-24T12:13:28;2.50;;;1.90;;
39778;SDS011;25454;49.878;8.618;2023-04-24T12:18:29;2.07;;;1.70;;
39778;SDS011;25454;49.878;8.618;2023-04-24T12:23:33;5.17;;;1.90;;
39778;SDS011;25454;49.878;8.618;2023-04-24T12:28:38;4.43;;;2.10;;
39778;SDS011;25454;49.878;8.618;2023-04-24T12:33:39;2.80;;;2.37;;
39778;SDS011;25454;49.878;8.618;2023-04-24T12:38:39;3.23;;;2.60;;
39778;SDS011;25454;49.878;8.618;2023-04-24T12:43:51;4.40;;;2.90;;
39778;SDS011;25454;49.878;8.618;2023-04-24T12:48:52;3.97;;;2.33;;
39778;SDS011;25454;49.878;8.618;2023-04-24T12:53:53;2.93;;;2.20;;
39778;SDS011;25454;49.878;8.618;2023-04-24T12:58:54;4.20;;;2.63;;
39778;SDS011;25454;49.878;8.618;2023-04-24T13:03:54;3.60;;;3.00;;
39778;SDS011;25454;49.878;8.618;2023-04-24T13:08:55;4.57;;;2.63;;
39778;SDS011;25454;49.878;8.618;2023-04-24T13:13:57;4.67;;;2.60;;
39778;SDS011;25454;49.878;8.618;2023-04-24T13:18:58;2.83;;;2.63;;
39778;SDS011;25454;49.878;8.618;2023-04-24T13:23:59;4.80;;;2.40;;
39778;SDS011;25454;49.878;8.618;2023-04-24T13:28:59;3.80;;;2.63;;
39778;SDS011;25454;49.878;8.618;2023-04-24T13:34:00;3.77;;;3.00;;
39778;SDS011;25454;49.878;8.618;2023-04-24T13:39:02;6.23;;;2.57;;
39778;SDS011;25454;49.878;8.618;2023-04-24T13:44:05;4.47;;;2.43;;
39778;SDS011;25454;49.878;8.618;2023-04-24T13:49:06;2.57;;;2.30;;
39778;SDS011;25454;49.878;8.618;2023-04-24T13:54:07;4.03;;;2.60;;
39778;SDS011;25454;49.878;8.618;2023-04-24T13:59:07;6.73;;;2.90;;
39778;SDS011;25454;49.878;8.618;2023-04-24T14:04:08;3.57;;;2.50;;
39778;SDS011;25454;49.878;8.618;2023-04-24T14:09:09;4.37;;;2.43;;
39778;SDS011;25454;49.878;8.618;2023-04-24T14:14:10;4.00;;;2.50;;
39778;SDS011;25454;49.878;8.618;2023-04-24T14:19:11;8.07;;;2.90;;
39778;SDS011;25454;49.878;8.618;2023-04-24T14:24:12;2.50;;;2.30;;
39778;SDS011;25454;49.878;8.618;2023-04-24T14:29:12;3.03;;;2.70;;
39778;SDS011;25454;49.878;8.618;2023-04-24T14:34:13;3.37;;;2.73;;
39778;SDS011;25454;49.878;8.618;2023-04-24T14:39:14;3.10;;;2.40;;
39778;SDS011;25454;49.878;8.618;2023-04-24T14:44:14;3.20;;;2.40;;
39778;SDS011;25454;49.878;8.618;2023-04-24T14:49:15;3.20;;;2.50;;
39778;SDS011;25454;49.878;8.618;2023-04-24T14:54:16;3.90;;;2.80;;
39778;SDS011;25454;49.878;8.618;2023-04-24T14:59:16;5.40;;;2.70;;
39778;SDS011;25454;49.878;8.618;2023-04-24T15:04:17;2.67;;;2.13;;
39778;SDS011;25454;49.878;8.618;2023-04-24T15:09:17;2.83;;;2.30;;
39778;SDS011;25454;49.878;8.618;2023-04-24T15:14:18;2.70;;;2.43;;
39778;SDS011;25454;49.878;8.618;2023-04-24T15:19:19;3.30;;;2.60;;
39778;SDS011;25454;49.878;8.618;2023-04-24T15:24:19;4.77;;;2.43;;
39778;SDS011;25454;49.878;8.618;2023-04-24T15:29:20;4.07;;;3.57;;
39778;SDS011;25454;49.878;8.618;2023-04-24T15:34:22;3.70;;;2.53;;
39778;SDS011;25454;49.878;8.618;2023-04-24T15:39:22;3.43;;;2.40;;
39778;SDS011;25454;49.878;8.618;2023-04-24T15:44:24;3.97;;;3.00;;
39778;SDS011;25454;49.878;8.618;2023-04-24T15:49:25;3.00;;;2.47;;
39778;SDS011;25454;49.878;8.618;2023-04-24T15:54:25;4.50;;;2.70;;
39778;SDS011;25454;49.878;8.618;2023-04-24T15:59:29;4.47;;;2.37;;
39778;SDS011;25454;49.878;8.618;2023-04-24T16:04:30;3.73;;;2.90;;
39778;SDS011;25454;49.878;8.618;2023-04-24T16:09:33;3.27;;;2.63;;
39778;SDS011;25454;49.878;8.618;2023-04-24T16:14:34;3.30;;;2.70;;
39778;SDS011;25454;49.878;8.618;2023-04-24T16:19:35;3.43;;;2.67;;
39778;SDS011;25454;49.878;8.618;2023-04-24T16:24:36;2.60;;;2.40;;
39778;SDS011;25454;49.878;8.618;2023-04-24T16:29:36;4.57;;;2.90;;
39778;SDS011;25454;49.878;8.618;2023-04-24T16:34:37;4.93;;;3.00;;
39778;SDS011;25454;49.878;8.618;2023-04-24T16:39:38;4.10;;;2.70;;
39778;SDS011;25454;49.878;8.618;2023-04-24T16:44:42;3.10;;;2.50;;
39778;SDS011;25454;49.878;8.618;2023-04-24T16:49:43;3.40;;;3.10;;
39778;SDS011;25454;49.878;8.618;2023-04-24T16:54:44;4.47;;;2.87;;
39778;SDS011;25454;49.878;8.618;2023-04-24T16:59:44;6.33;;;3.00;;
39778;SDS011;25454;49.878;8.618;2023-04-24T17:04:45;6.20;;;3.30;;
39778;SDS011;25454;49.878;8.618;2023-04-24T17:09:47;3.83;;;2.90;;
39778;SDS011;25454;49.878;8.618;2023-04-24T17:14:47;5.40;;;3.60;;
39778;SDS011;25454;49.878;8.618;2023-04-24T17:19:48;5.10;;;3.50;;
39778;SDS011;25454;49.878;8.618;2023-04-24T17:24:50;4.53;;;4.07;;
39778;SDS011;25454;49.878;8.618;2023-04-24T17:29:50;5.67;;;4.40;;
39778;SDS011;25454;49.878;8.618;2023-04-24T17:34:51;5.80;;;4.70;;
39778;SDS011;25454;49.878;8.618;2023-04-24T17:39:51;6.27;;;4.93;;
39778;SDS011;25454;49.878;8.618;2023-04-24T17:44:53;7.93;;;5.30;;
39778;SDS011;25454;49.878;8.618;2023-04-24T17:49:54;6.40;;;4.77;;
39778;SDS011;25454;49.878;8.618;2023-04-24T17:54:55;6.87;;;5.17;;
39778;SDS011;25454;49.878;8.618;2023-04-24T17:59:56;8.17;;;4.93;;
39778;SDS011;25454;49.878;8.618;2023-04-24T18:04:56;6.13;;;5.00;;
39778;SDS011;25454;49.878;8.618;2023-04-24T18:09:57;7.73;;;5.30;;
39778;SDS011;25454;49.878;8.618;2023-04-24T18:14:57;3.97;;;3.67;;
39778;SDS011;25454;49.878;8.618;2023-04-24T18:19:58;4.53;;;3.70;;
39778;SDS011;25454;49.878;8.618;2023-04-24T18:24:59;4.40;;;3.87;;
39778;SDS011;25454;49.878;8.618;2023-04-24T18:30:00;3.87;;;3.47;;
39778;SDS011;25454;49.878;8.618;2023-04-24T18:35:02;4.37;;;3.97;;
39778;SDS011;25454;49.878;8.618;2023-04-24T18:40:03;5.00;;;3.90;;
39778;SDS011;25454;49.878;8.618;2023-04-24T18:45:04;5.10;;;4.20;;
39778;SDS011;25454;49.878;8.618;2023-04-24T18:50:05;6.77;;;5.07;;
39778;SDS011;25454;49.878;8.618;2023-04-24T18:55:06;4.23;;;3.83;;
39778;SDS011;25454;49.878;8.618;2023-04-24T19:00:08;4.77;;;4.17;;
39778;SDS011;25454;49.878;8.618;2023-04-24T19:05:09;8.47;;;4.33;;
39778;SDS011;25454;49.878;8.618;2023-04-24T19:10:11;5.33;;;4.27;;
39778;SDS011;25454;49.878;8.618;2023-04-24T19:15:12;4.50;;;4.03;;
39778;SDS011;25454;49.878;8.618;2023-04-24T19:20:12;5.67;;;4.37;;
39778;SDS011;25454;49.878;8.618;2023-04-24T19:25:13;5.00;;;4.20;;
39778;SDS011;25454;49.878;8.618;2023-04-24T19:30:14;5.03;;;4.53;;
39778;SDS011;25454;49.878;8.618;2023-04-24T19:35:14;6.67;;;5.00;;
39778;SDS011;25454;49.878;8.618;2023-04-24T19:40:15;4.73;;;4.30;;
39778;SDS011;25454;49.878;8.618;2023-04-24T19:45:16;4.50;;;3.90;;
39778;SDS011;25454;49.878;8.618;2023-04-24T19:50:17;4.87;;;4.20;;
39778;SDS011;25454;49.878;8.618;2023-04-24T19:55:18;5.33;;;4.33;;
39778;SDS011;25454;49.878;8.618;2023-04-24T20:00:19;3.97;;;3.63;;
39778;SDS011;25454;49.878;8.618;2023-04-24T20:05:20;5.47;;;3.90;;
39778;SDS011;25454;49.878;8.618;2023-04-24T20:10:20;5.20;;;3.93;;
39778;SDS011;25454;49.878;8.618;2023-04-24T20:15:21;6.10;;;3.73;;
39778;SDS011;25454;49.878;8.618;2023-04-24T20:20:22;4.00;;;3.67;;
39778;SDS011;25454;49.878;8.618;2023-04-24T20:25:22;3.93;;;3.53;;
39778;SDS011;25454;49.878;8.618;2023-04-24T20:30:23;4.53;;;4.10;;
39778;SDS011;25454;49.878;8.618;2023-04-24T20:35:24;4.77;;;4.03;;
39778;SDS011;25454;49.878;8.618;2023-04-24T20:40:25;4.57;;;3.80;;
39778;SDS011;25454;49.878;8.618;2023-04-24T20:45:28;4.70;;;4.30;;
39778;SDS011;25454;49.878;8.618;2023-04-24T20:50:29;4.60;;;4.20;;
39778;SDS011;25454;49.878;8.618;2023-04-24T20:55:31;6.27;;;4.53;;
39778;SDS011;25454;49.878;8.618;2023-04-24T21:00:35;4.93;;;4.40;;
39778;SDS011;25454;49.878;8.618;2023-04-24T21:05:36;6.47;;;5.10;;
39778;SDS011;25454;49.878;8.618;2023-04-24T21:10:37;5.63;;;4.90;;
39778;SDS011;25454;49.878;8.618;2023-04-24T21:15:38;5.33;;;4.90;;
39778;SDS011;25454;49.878;8.618;2023-04-24T21:20:38;5.90;;;5.40;;
39778;SDS011;25454;49.878;8.618;2023-04-24T21:25:39;5.33;;;4.83;;
39778;SDS011;25454;49.878;8.618;2023-04-24T21:35:52;6.33;;;5.73;;
39778;SDS011;25454;49.878;8.618;2023-04-24T21:40:53;5.80;;;5.30;;
39778;SDS011;25454;49.878;8.618;2023-04-24T21:45:53;5.90;;;5.40;;
39778;SDS011;25454;49.878;8.618;2023-04-24T21:50:58;6.37;;;5.77;;
39778;SDS011;25454;49.878;8.618;2023-04-24T21:55:59;9.40;;;5.63;;
39778;SDS011;25454;49.878;8.618;2023-04-24T22:01:00;6.23;;;5.63;;
39778;SDS011;25454;49.878;8.618;2023-04-24T22:06:00;6.60;;;5.87;;
39778;SDS011;25454;49.878;8.618;2023-04-24T22:11:01;6.00;;;5.33;;
39778;SDS011;25454;49.878;8.618;2023-04-24T22:16:01;6.67;;;5.60;;
39778;SDS011;25454;49.878;8.618;2023-04-24T22:21:05;5.90;;;5.30;;
39778;SDS011;25454;49.878;8.618;2023-04-24T22:26:06;5.90;;;5.40;;
39778;SDS011;25454;49.878;8.618;2023-04-24T22:31:06;6.23;;;5.63;;
39778;SDS011;25454;49.878;8.618;2023-04-24T22:36:07;7.40;;;5.63;;
39778;SDS011;25454;49.878;8.618;2023-04-24T22:41:08;6.10;;;5.50;;
39778;SDS011;25454;49.878;8.618;2023-04-24T22:46:15;6.90;;;4.70;;
39778;SDS011;25454;49.878;8.618;2023-04-24T22:51:15;4.23;;;3.83;;
39778;SDS011;25454;49.878;8.618;2023-04-24T22:56:20;3.43;;;3.17;;
39778;SDS011;25454;49.878;8.618;2023-04-24T23:01:20;3.40;;;2.87;;
39778;SDS011;25454;49.878;8.618;2023-04-24T23:06:21;3.57;;;2.97;;
39778;SDS011;25454;49.878;8.618;2023-04-24T23:11:22;2.83;;;2.63;;
39778;SDS011;25454;49.878;8.618;2023-04-24T23:16:22;2.90;;;2.60;;
39778;SDS011;25454;49.878;8.618;2023-04-24T23:21:23;3.23;;;3.03;;
39778;SDS011;25454;49.878;8.618;2023-04-24T23:26:23;2.80;;;2.60;;
39778;SDS011;25454;49.878;8.618;2023-04-24T23:31:24;3.67;;;3.00;;
39778;SDS011;25454;49.878;8.618;2023-04-24T23:36:25;5.53;;;3.10;;
39778;SDS011;25454;49.878;8.618;2023-04-24T23:41:26;3.20;;;3.00;;
39778;SDS011;25454;49.878;8.618;2023-04-24T23:46:26;2.77;;;2.57;;
39778;SDS011;25454;49.878;8.618;2023-04-24T23:51:27;3.23;;;3.00;;
39778;SDS011;25454;49.878;8.618;2023-04-24T23:56:28;3.47;;;3.00;;
